This is the latest recevied weather packets stored in our database for station/object N6OL. If no packets are shown the sender has not sent any weather packets the latest 10 day(s).
| Time | Temp. | Humidity | Pressure | Rain* | Wind** | Luminosity | Snow |
|---|---|---|---|---|---|---|---|
| 1777590924 | 18.33° C | 67% | 1013 hPa | 0 mm | - | 591 W/m² | - |
| 1777590003 | 18.33° C | 65% | 1013 hPa | 0 mm | - | 626 W/m² | - |
| 1777589403 | 18.89° C | 65% | 1013.1 hPa | 0 mm | - | 649 W/m² | - |
| 1777588803 | 18.33° C | 66% | 1013.2 hPa | 0 mm | - | 670 W/m² | - |
| 1777588203 | 18.33° C | 66% | 1013.3 hPa | 0 mm | - | 687 W/m² | - |
| 1777587303 | 18.33° C | 65% | 1013.6 hPa | 0 mm | - | 714 W/m² | - |
| 1777587003 | 18.33° C | 67% | 1013.7 hPa | 0 mm | - | 724 W/m² | - |
| 1777586403 | 18.33° C | 67% | 1013.8 hPa | 0 mm | - | 738 W/m² | - |
| 1777584903 | 18.89° C | 64% | 1013.8 hPa | 0 mm | - | 772 W/m² | - |
| 1777582203 | 18.89° C | 63% | 1013.8 hPa | 0 mm | - | 809 W/m² | - |
| 1777581924 | 18.89° C | 62% | 1013.8 hPa | 0 mm | - | 814 W/m² | - |
| 1777579503 | 18.89° C | 60% | 1014.1 hPa | 0 mm | - | 819 W/m² | - |
| 1777576803 | 18.33° C | 65% | 1014.3 hPa | 0 mm | - | 798 W/m² | - |
| 1777575903 | 17.78° C | 66% | 1014.5 hPa | 0 mm | - | 786 W/m² | - |
| 1777572303 | 17.22° C | 70% | 1014.8 hPa | 0 mm | - | 705 W/m² | - |
| 1777570503 | 17.22° C | 70% | 1015.1 hPa | 0 mm | - | 645 W/m² | - |
| 1777569603 | 16.67° C | 69% | 1015 hPa | 0 mm | - | 612 W/m² | - |
| 1777568403 | 17.22° C | 68% | 1015.2 hPa | 0 mm | - | 561 W/m² | - |
| 1777567824 | 17.22° C | 69% | 1015.4 hPa | 0 mm | - | 550 W/m² | - |
| 1777565103 | 14.44° C | 76% | 1015.4 hPa | 0 mm | - | 434 W/m² | - |
| 1777563903 | 14.44° C | 79% | 1015.5 hPa | 0 mm | - | 381 W/m² | - |
| 1777563324 | 13.89° C | 79% | 1015.5 hPa | 0 mm | - | 366 W/m² | - |
| 1777562103 | 13.33° C | 81% | 1015.5 hPa | 0 mm | - | 285 W/m² | - |
| 1777561803 | 13.33° C | 82% | 1015.4 hPa | 0 mm | - | 253 W/m² | - |
| 1777560303 | 12.22° C | 85% | 1015.2 hPa | 0 mm | - | 149 W/m² | - |
* Rain latest hour (hover to see other rain measurements)
** Current wind speed in m/s (hover to see current wind gust speed)